sensor_id;sensor_type;location;lat;lon;timestamp;P1;durP1;ratioP1;P2;durP2;ratioP2
48018;SDS011;33786;48.690;9.562;2024-01-30T00:00:25;18.27;;;10.18;;
48018;SDS011;33786;48.690;9.562;2024-01-30T00:02:52;15.27;;;10.85;;
48018;SDS011;33786;48.690;9.562;2024-01-30T00:05:19;14.13;;;9.98;;
48018;SDS011;33786;48.690;9.562;2024-01-30T00:07:46;15.30;;;10.45;;
48018;SDS011;33786;48.690;9.562;2024-01-30T00:10:13;15.63;;;10.23;;
48018;SDS011;33786;48.690;9.562;2024-01-30T00:12:40;15.15;;;9.55;;
48018;SDS011;33786;48.690;9.562;2024-01-30T00:15:07;16.90;;;9.95;;
48018;SDS011;33786;48.690;9.562;2024-01-30T00:17:36;14.27;;;9.30;;
48018;SDS011;33786;48.690;9.562;2024-01-30T00:20:03;15.63;;;10.60;;
48018;SDS011;33786;48.690;9.562;2024-01-30T00:22:35;15.93;;;9.73;;
48018;SDS011;33786;48.690;9.562;2024-01-30T00:25:02;13.68;;;9.85;;
48018;SDS011;33786;48.690;9.562;2024-01-30T00:27:29;12.95;;;9.85;;
48018;SDS011;33786;48.690;9.562;2024-01-30T00:29:56;15.35;;;10.43;;
48018;SDS011;33786;48.690;9.562;2024-01-30T00:32:23;17.65;;;10.63;;
48018;SDS011;33786;48.690;9.562;2024-01-30T00:34:50;14.75;;;9.02;;
48018;SDS011;33786;48.690;9.562;2024-01-30T00:37:17;13.85;;;8.68;;
48018;SDS011;33786;48.690;9.562;2024-01-30T00:39:45;14.35;;;9.27;;
48018;SDS011;33786;48.690;9.562;2024-01-30T00:42:12;16.58;;;9.68;;
48018;SDS011;33786;48.690;9.562;2024-01-30T00:44:39;16.38;;;9.45;;
48018;SDS011;33786;48.690;9.562;2024-01-30T00:47:05;13.95;;;9.10;;
48018;SDS011;33786;48.690;9.562;2024-01-30T00:49:32;13.50;;;10.00;;
48018;SDS011;33786;48.690;9.562;2024-01-30T00:52:00;12.73;;;9.52;;
48018;SDS011;33786;48.690;9.562;2024-01-30T00:54:27;12.35;;;9.38;;
48018;SDS011;33786;48.690;9.562;2024-01-30T00:56:54;14.75;;;10.55;;
48018;SDS011;33786;48.690;9.562;2024-01-30T00:59:20;15.30;;;9.63;;
48018;SDS011;33786;48.690;9.562;2024-01-30T01:01:47;14.35;;;9.05;;
48018;SDS011;33786;48.690;9.562;2024-01-30T01:04:14;14.63;;;9.82;;
48018;SDS011;33786;48.690;9.562;2024-01-30T01:06:41;14.32;;;10.40;;
48018;SDS011;33786;48.690;9.562;2024-01-30T01:09:11;15.00;;;10.48;;
48018;SDS011;33786;48.690;9.562;2024-01-30T01:11:38;14.65;;;9.73;;
48018;SDS011;33786;48.690;9.562;2024-01-30T01:14:05;13.35;;;9.05;;
48018;SDS011;33786;48.690;9.562;2024-01-30T01:16:33;16.88;;;10.23;;
48018;SDS011;33786;48.690;9.562;2024-01-30T01:19:00;12.40;;;9.10;;
48018;SDS011;33786;48.690;9.562;2024-01-30T01:21:27;13.43;;;8.75;;
48018;SDS011;33786;48.690;9.562;2024-01-30T01:23:54;12.40;;;9.50;;
48018;SDS011;33786;48.690;9.562;2024-01-30T01:26:22;14.57;;;9.60;;
48018;SDS011;33786;48.690;9.562;2024-01-30T01:28:49;15.52;;;10.30;;
48018;SDS011;33786;48.690;9.562;2024-01-30T01:31:16;15.40;;;9.85;;
48018;SDS011;33786;48.690;9.562;2024-01-30T01:33:44;15.10;;;9.38;;
48018;SDS011;33786;48.690;9.562;2024-01-30T01:36:13;13.40;;;9.55;;
48018;SDS011;33786;48.690;9.562;2024-01-30T01:38:40;15.25;;;10.23;;
48018;SDS011;33786;48.690;9.562;2024-01-30T01:41:07;11.90;;;8.50;;
48018;SDS011;33786;48.690;9.562;2024-01-30T01:43:33;12.98;;;9.13;;
48018;SDS011;33786;48.690;9.562;2024-01-30T01:46:00;12.45;;;8.55;;
48018;SDS011;33786;48.690;9.562;2024-01-30T01:48:28;14.73;;;9.15;;
48018;SDS011;33786;48.690;9.562;2024-01-30T01:50:56;14.10;;;9.20;;
48018;SDS011;33786;48.690;9.562;2024-01-30T01:53:24;13.48;;;9.18;;
48018;SDS011;33786;48.690;9.562;2024-01-30T01:55:51;13.77;;;8.43;;
48018;SDS011;33786;48.690;9.562;2024-01-30T01:58:19;10.52;;;7.90;;
48018;SDS011;33786;48.690;9.562;2024-01-30T02:00:48;10.25;;;8.38;;
48018;SDS011;33786;48.690;9.562;2024-01-30T02:03:17;15.13;;;8.63;;
48018;SDS011;33786;48.690;9.562;2024-01-30T02:05:47;15.00;;;9.75;;
48018;SDS011;33786;48.690;9.562;2024-01-30T02:08:15;16.23;;;10.35;;
48018;SDS011;33786;48.690;9.562;2024-01-30T02:10:42;13.27;;;8.55;;
48018;SDS011;33786;48.690;9.562;2024-01-30T02:13:09;12.57;;;8.48;;
48018;SDS011;33786;48.690;9.562;2024-01-30T02:15:36;11.27;;;8.85;;
48018;SDS011;33786;48.690;9.562;2024-01-30T02:18:03;11.88;;;8.50;;
48018;SDS011;33786;48.690;9.562;2024-01-30T02:20:30;14.43;;;10.50;;
48018;SDS011;33786;48.690;9.562;2024-01-30T02:23:01;13.00;;;9.55;;
48018;SDS011;33786;48.690;9.562;2024-01-30T02:25:33;13.68;;;8.35;;
48018;SDS011;33786;48.690;9.562;2024-01-30T02:28:01;15.13;;;8.80;;
48018;SDS011;33786;48.690;9.562;2024-01-30T02:30:28;13.82;;;9.52;;
48018;SDS011;33786;48.690;9.562;2024-01-30T02:32:55;13.38;;;8.68;;
48018;SDS011;33786;48.690;9.562;2024-01-30T02:35:22;13.70;;;9.27;;
48018;SDS011;33786;48.690;9.562;2024-01-30T02:37:48;13.77;;;8.77;;
48018;SDS011;33786;48.690;9.562;2024-01-30T02:40:15;13.23;;;8.77;;
48018;SDS011;33786;48.690;9.562;2024-01-30T02:42:42;13.70;;;9.40;;
48018;SDS011;33786;48.690;9.562;2024-01-30T02:45:10;12.32;;;7.93;;
48018;SDS011;33786;48.690;9.562;2024-01-30T02:47:38;14.65;;;8.82;;
48018;SDS011;33786;48.690;9.562;2024-01-30T02:50:05;14.68;;;8.65;;
48018;SDS011;33786;48.690;9.562;2024-01-30T02:52:33;13.88;;;9.90;;
48018;SDS011;33786;48.690;9.562;2024-01-30T02:55:00;12.20;;;8.00;;
48018;SDS011;33786;48.690;9.562;2024-01-30T02:57:28;18.77;;;9.45;;
48018;SDS011;33786;48.690;9.562;2024-01-30T02:59:55;17.10;;;10.35;;
48018;SDS011;33786;48.690;9.562;2024-01-30T03:02:22;12.93;;;9.57;;
48018;SDS011;33786;48.690;9.562;2024-01-30T03:04:49;13.48;;;8.45;;
48018;SDS011;33786;48.690;9.562;2024-01-30T03:07:17;12.85;;;8.95;;
48018;SDS011;33786;48.690;9.562;2024-01-30T03:09:44;13.00;;;8.50;;
48018;SDS011;33786;48.690;9.562;2024-01-30T03:12:11;14.55;;;8.65;;
48018;SDS011;33786;48.690;9.562;2024-01-30T03:14:38;13.82;;;9.55;;
48018;SDS011;33786;48.690;9.562;2024-01-30T03:17:05;12.23;;;9.10;;
48018;SDS011;33786;48.690;9.562;2024-01-30T03:19:32;12.55;;;9.57;;
48018;SDS011;33786;48.690;9.562;2024-01-30T03:21:59;12.32;;;8.73;;
48018;SDS011;33786;48.690;9.562;2024-01-30T03:24:26;13.10;;;9.60;;
48018;SDS011;33786;48.690;9.562;2024-01-30T03:26:53;15.30;;;9.80;;
48018;SDS011;33786;48.690;9.562;2024-01-30T03:29:20;14.63;;;9.27;;
48018;SDS011;33786;48.690;9.562;2024-01-30T03:31:47;19.02;;;10.52;;
48018;SDS011;33786;48.690;9.562;2024-01-30T03:34:13;13.75;;;8.68;;
48018;SDS011;33786;48.690;9.562;2024-01-30T03:36:41;11.88;;;7.85;;
48018;SDS011;33786;48.690;9.562;2024-01-30T03:39:08;14.90;;;9.85;;
48018;SDS011;33786;48.690;9.562;2024-01-30T03:41:34;15.93;;;9.80;;
48018;SDS011;33786;48.690;9.562;2024-01-30T03:44:01;15.40;;;9.20;;
48018;SDS011;33786;48.690;9.562;2024-01-30T03:46:28;13.98;;;8.57;;
48018;SDS011;33786;48.690;9.562;2024-01-30T03:48:55;13.82;;;8.93;;
48018;SDS011;33786;48.690;9.562;2024-01-30T03:51:22;13.85;;;9.52;;
48018;SDS011;33786;48.690;9.562;2024-01-30T03:53:49;14.27;;;9.23;;
48018;SDS011;33786;48.690;9.562;2024-01-30T03:56:15;12.77;;;9.48;;
48018;SDS011;33786;48.690;9.562;2024-01-30T03:58:42;13.50;;;8.80;;
48018;SDS011;33786;48.690;9.562;2024-01-30T04:01:15;13.45;;;10.10;;
48018;SDS011;33786;48.690;9.562;2024-01-30T04:03:42;15.30;;;9.00;;
48018;SDS011;33786;48.690;9.562;2024-01-30T04:06:10;15.93;;;9.00;;
48018;SDS011;33786;48.690;9.562;2024-01-30T04:08:38;11.90;;;8.40;;
48018;SDS011;33786;48.690;9.562;2024-01-30T04:11:05;12.50;;;9.15;;
48018;SDS011;33786;48.690;9.562;2024-01-30T04:13:32;14.10;;;9.98;;
48018;SDS011;33786;48.690;9.562;2024-01-30T04:16:00;17.67;;;10.60;;
48018;SDS011;33786;48.690;9.562;2024-01-30T04:18:30;13.40;;;8.73;;
48018;SDS011;33786;48.690;9.562;2024-01-30T04:20:56;14.38;;;8.82;;
48018;SDS011;33786;48.690;9.562;2024-01-30T04:23:23;14.85;;;9.73;;
48018;SDS011;33786;48.690;9.562;2024-01-30T04:25:50;13.65;;;8.68;;
48018;SDS011;33786;48.690;9.562;2024-01-30T04:28:17;14.63;;;9.27;;
48018;SDS011;33786;48.690;9.562;2024-01-30T04:30:44;15.07;;;9.20;;
48018;SDS011;33786;48.690;9.562;2024-01-30T04:33:11;15.07;;;10.18;;
48018;SDS011;33786;48.690;9.562;2024-01-30T04:35:38;16.02;;;9.35;;
48018;SDS011;33786;48.690;9.562;2024-01-30T04:38:05;11.32;;;8.27;;
48018;SDS011;33786;48.690;9.562;2024-01-30T04:40:31;13.38;;;8.82;;
48018;SDS011;33786;48.690;9.562;2024-01-30T04:42:58;14.38;;;10.00;;
48018;SDS011;33786;48.690;9.562;2024-01-30T04:45:25;17.98;;;10.20;;
48018;SDS011;33786;48.690;9.562;2024-01-30T04:47:52;14.25;;;8.93;;
48018;SDS011;33786;48.690;9.562;2024-01-30T04:50:19;14.50;;;9.38;;
48018;SDS011;33786;48.690;9.562;2024-01-30T04:52:46;11.45;;;8.10;;
48018;SDS011;33786;48.690;9.562;2024-01-30T04:55:13;14.13;;;9.27;;
48018;SDS011;33786;48.690;9.562;2024-01-30T04:57:39;14.27;;;9.25;;
48018;SDS011;33786;48.690;9.562;2024-01-30T05:00:06;12.55;;;8.05;;
48018;SDS011;33786;48.690;9.562;2024-01-30T05:02:34;13.15;;;9.23;;
48018;SDS011;33786;48.690;9.562;2024-01-30T05:05:00;15.35;;;9.20;;
48018;SDS011;33786;48.690;9.562;2024-01-30T05:07:27;12.05;;;8.80;;
48018;SDS011;33786;48.690;9.562;2024-01-30T05:09:54;14.65;;;9.77;;
48018;SDS011;33786;48.690;9.562;2024-01-30T05:12:24;13.93;;;9.52;;
48018;SDS011;33786;48.690;9.562;2024-01-30T05:14:51;13.35;;;9.20;;
48018;SDS011;33786;48.690;9.562;2024-01-30T05:17:18;14.75;;;10.30;;
48018;SDS011;33786;48.690;9.562;2024-01-30T05:19:45;15.13;;;9.70;;
48018;SDS011;33786;48.690;9.562;2024-01-30T05:22:12;12.60;;;8.80;;
48018;SDS011;33786;48.690;9.562;2024-01-30T05:24:42;13.23;;;9.43;;
48018;SDS011;33786;48.690;9.562;2024-01-30T05:27:09;14.95;;;9.23;;
48018;SDS011;33786;48.690;9.562;2024-01-30T05:29:36;14.65;;;9.80;;
48018;SDS011;33786;48.690;9.562;2024-01-30T05:32:03;15.27;;;9.38;;
48018;SDS011;33786;48.690;9.562;2024-01-30T05:34:31;14.43;;;8.70;;
48018;SDS011;33786;48.690;9.562;2024-01-30T05:36:58;16.83;;;10.70;;
48018;SDS011;33786;48.690;9.562;2024-01-30T05:39:25;13.40;;;9.30;;
48018;SDS011;33786;48.690;9.562;2024-01-30T05:41:52;13.23;;;9.18;;
48018;SDS011;33786;48.690;9.562;2024-01-30T05:44:19;17.02;;;9.65;;
48018;SDS011;33786;48.690;9.562;2024-01-30T05:46:45;14.90;;;9.23;;
48018;SDS011;33786;48.690;9.562;2024-01-30T05:49:12;17.10;;;10.60;;
48018;SDS011;33786;48.690;9.562;2024-01-30T05:51:39;16.52;;;9.77;;
48018;SDS011;33786;48.690;9.562;2024-01-30T05:54:06;18.92;;;9.55;;
48018;SDS011;33786;48.690;9.562;2024-01-30T05:56:33;15.75;;;9.90;;
48018;SDS011;33786;48.690;9.562;2024-01-30T05:59:00;22.80;;;12.38;;
48018;SDS011;33786;48.690;9.562;2024-01-30T06:01:27;20.00;;;9.82;;
48018;SDS011;33786;48.690;9.562;2024-01-30T06:03:55;17.38;;;10.07;;
48018;SDS011;33786;48.690;9.562;2024-01-30T06:06:22;18.75;;;11.68;;
48018;SDS011;33786;48.690;9.562;2024-01-30T06:08:49;21.45;;;10.50;;
48018;SDS011;33786;48.690;9.562;2024-01-30T06:11:16;21.58;;;11.35;;
48018;SDS011;33786;48.690;9.562;2024-01-30T06:13:43;17.10;;;10.55;;
48018;SDS011;33786;48.690;9.562;2024-01-30T06:16:10;19.05;;;10.63;;
48018;SDS011;33786;48.690;9.562;2024-01-30T06:18:38;15.88;;;10.80;;
48018;SDS011;33786;48.690;9.562;2024-01-30T06:21:05;14.35;;;9.70;;
48018;SDS011;33786;48.690;9.562;2024-01-30T06:23:33;13.52;;;9.57;;
48018;SDS011;33786;48.690;9.562;2024-01-30T06:26:00;19.02;;;9.73;;
48018;SDS011;33786;48.690;9.562;2024-01-30T06:28:27;15.73;;;9.90;;
48018;SDS011;33786;48.690;9.562;2024-01-30T06:30:54;12.85;;;9.38;;
48018;SDS011;33786;48.690;9.562;2024-01-30T06:33:21;16.45;;;9.35;;
48018;SDS011;33786;48.690;9.562;2024-01-30T06:35:48;15.95;;;9.52;;
48018;SDS011;33786;48.690;9.562;2024-01-30T06:38:15;16.27;;;9.70;;
48018;SDS011;33786;48.690;9.562;2024-01-30T06:40:42;14.60;;;9.52;;
48018;SDS011;33786;48.690;9.562;2024-01-30T06:43:09;16.27;;;9.85;;
48018;SDS011;33786;48.690;9.562;2024-01-30T06:45:36;12.85;;;8.75;;
48018;SDS011;33786;48.690;9.562;2024-01-30T06:48:03;12.10;;;9.05;;
48018;SDS011;33786;48.690;9.562;2024-01-30T06:50:30;15.15;;;9.70;;
48018;SDS011;33786;48.690;9.562;2024-01-30T06:52:57;19.05;;;9.45;;
48018;SDS011;33786;48.690;9.562;2024-01-30T06:55:24;13.27;;;9.65;;
48018;SDS011;33786;48.690;9.562;2024-01-30T06:57:51;16.27;;;9.52;;
48018;SDS011;33786;48.690;9.562;2024-01-30T07:00:18;17.92;;;10.43;;
48018;SDS011;33786;48.690;9.562;2024-01-30T07:02:46;15.25;;;9.82;;
48018;SDS011;33786;48.690;9.562;2024-01-30T07:05:13;18.33;;;10.63;;
48018;SDS011;33786;48.690;9.562;2024-01-30T07:07:40;13.15;;;9.50;;
48018;SDS011;33786;48.690;9.562;2024-01-30T07:10:07;15.55;;;9.82;;
48018;SDS011;33786;48.690;9.562;2024-01-30T07:12:35;12.80;;;9.20;;
48018;SDS011;33786;48.690;9.562;2024-01-30T07:15:02;17.33;;;9.50;;
48018;SDS011;33786;48.690;9.562;2024-01-30T07:17:29;18.55;;;9.90;;
48018;SDS011;33786;48.690;9.562;2024-01-30T07:19:56;14.73;;;10.10;;
48018;SDS011;33786;48.690;9.562;2024-01-30T07:22:23;15.73;;;9.70;;
48018;SDS011;33786;48.690;9.562;2024-01-30T07:24:51;16.38;;;9.57;;
48018;SDS011;33786;48.690;9.562;2024-01-30T07:27:18;16.27;;;9.93;;
48018;SDS011;33786;48.690;9.562;2024-01-30T07:29:45;14.55;;;9.38;;
48018;SDS011;33786;48.690;9.562;2024-01-30T07:32:12;16.58;;;8.88;;
48018;SDS011;33786;48.690;9.562;2024-01-30T07:34:39;17.42;;;10.18;;
48018;SDS011;33786;48.690;9.562;2024-01-30T07:37:24;15.85;;;9.10;;
48018;SDS011;33786;48.690;9.562;2024-01-30T07:39:50;20.17;;;9.65;;
48018;SDS011;33786;48.690;9.562;2024-01-30T07:42:17;12.60;;;8.63;;
48018;SDS011;33786;48.690;9.562;2024-01-30T07:44:44;13.90;;;8.77;;
48018;SDS011;33786;48.690;9.562;2024-01-30T07:47:11;13.77;;;8.07;;
48018;SDS011;33786;48.690;9.562;2024-01-30T07:49:38;14.82;;;8.27;;
48018;SDS011;33786;48.690;9.562;2024-01-30T07:52:05;12.02;;;8.30;;
48018;SDS011;33786;48.690;9.562;2024-01-30T07:54:32;12.00;;;8.50;;
48018;SDS011;33786;48.690;9.562;2024-01-30T07:57:00;17.17;;;8.15;;
48018;SDS011;33786;48.690;9.562;2024-01-30T07:59:27;14.82;;;8.75;;
48018;SDS011;33786;48.690;9.562;2024-01-30T08:01:54;14.45;;;9.48;;
48018;SDS011;33786;48.690;9.562;2024-01-30T08:04:21;13.63;;;9.13;;
48018;SDS011;33786;48.690;9.562;2024-01-30T08:06:48;14.27;;;8.55;;
48018;SDS011;33786;48.690;9.562;2024-01-30T08:09:15;11.88;;;7.90;;
48018;SDS011;33786;48.690;9.562;2024-01-30T08:11:42;15.10;;;9.40;;
48018;SDS011;33786;48.690;9.562;2024-01-30T08:14:09;12.13;;;7.53;;
48018;SDS011;33786;48.690;9.562;2024-01-30T08:16:35;14.05;;;8.38;;
48018;SDS011;33786;48.690;9.562;2024-01-30T08:19:02;12.43;;;9.30;;
48018;SDS011;33786;48.690;9.562;2024-01-30T08:21:29;17.92;;;10.35;;
48018;SDS011;33786;48.690;9.562;2024-01-30T08:23:56;17.13;;;10.32;;
48018;SDS011;33786;48.690;9.562;2024-01-30T08:26:23;17.38;;;12.38;;
48018;SDS011;33786;48.690;9.562;2024-01-30T08:28:50;19.85;;;13.10;;
48018;SDS011;33786;48.690;9.562;2024-01-30T08:31:20;22.48;;;15.60;;
48018;SDS011;33786;48.690;9.562;2024-01-30T08:33:47;27.27;;;18.52;;
48018;SDS011;33786;48.690;9.562;2024-01-30T08:36:16;25.08;;;17.70;;
48018;SDS011;33786;48.690;9.562;2024-01-30T08:38:43;18.00;;;12.90;;
48018;SDS011;33786;48.690;9.562;2024-01-30T08:41:10;21.52;;;14.40;;
48018;SDS011;33786;48.690;9.562;2024-01-30T08:43:37;20.55;;;13.95;;
48018;SDS011;33786;48.690;9.562;2024-01-30T08:46:03;20.10;;;13.88;;
48018;SDS011;33786;48.690;9.562;2024-01-30T08:48:30;18.65;;;12.45;;
48018;SDS011;33786;48.690;9.562;2024-01-30T08:50:58;19.48;;;13.00;;
48018;SDS011;33786;48.690;9.562;2024-01-30T08:53:25;19.52;;;13.32;;
48018;SDS011;33786;48.690;9.562;2024-01-30T08:55:51;19.33;;;13.52;;
48018;SDS011;33786;48.690;9.562;2024-01-30T08:58:18;23.42;;;14.05;;
48018;SDS011;33786;48.690;9.562;2024-01-30T09:00:45;18.60;;;13.68;;
48018;SDS011;33786;48.690;9.562;2024-01-30T09:03:13;17.85;;;14.15;;
48018;SDS011;33786;48.690;9.562;2024-01-30T09:05:40;20.10;;;15.40;;
48018;SDS011;33786;48.690;9.562;2024-01-30T09:08:06;18.40;;;13.52;;
48018;SDS011;33786;48.690;9.562;2024-01-30T09:10:34;18.48;;;12.77;;
48018;SDS011;33786;48.690;9.562;2024-01-30T09:13:00;17.00;;;11.95;;
48018;SDS011;33786;48.690;9.562;2024-01-30T09:15:27;16.60;;;11.98;;
48018;SDS011;33786;48.690;9.562;2024-01-30T09:17:54;18.08;;;13.20;;
48018;SDS011;33786;48.690;9.562;2024-01-30T09:20:21;17.08;;;12.98;;
48018;SDS011;33786;48.690;9.562;2024-01-30T09:22:49;17.13;;;12.75;;
48018;SDS011;33786;48.690;9.562;2024-01-30T09:25:16;16.30;;;12.45;;
48018;SDS011;33786;48.690;9.562;2024-01-30T09:27:45;16.13;;;11.32;;
48018;SDS011;33786;48.690;9.562;2024-01-30T09:30:12;13.07;;;10.13;;
48018;SDS011;33786;48.690;9.562;2024-01-30T09:32:39;12.57;;;8.90;;
48018;SDS011;33786;48.690;9.562;2024-01-30T09:35:07;12.73;;;9.02;;
48018;SDS011;33786;48.690;9.562;2024-01-30T09:37:34;12.90;;;8.85;;
48018;SDS011;33786;48.690;9.562;2024-01-30T09:40:01;11.98;;;8.88;;
48018;SDS011;33786;48.690;9.562;2024-01-30T09:42:33;17.13;;;11.50;;
48018;SDS011;33786;48.690;9.562;2024-01-30T09:45:02;12.38;;;8.68;;
48018;SDS011;33786;48.690;9.562;2024-01-30T09:47:31;14.07;;;10.35;;
48018;SDS011;33786;48.690;9.562;2024-01-30T09:49:59;15.52;;;11.48;;
48018;SDS011;33786;48.690;9.562;2024-01-30T09:52:29;14.50;;;10.32;;
48018;SDS011;33786;48.690;9.562;2024-01-30T09:54:55;19.98;;;11.30;;
48018;SDS011;33786;48.690;9.562;2024-01-30T09:57:25;12.88;;;8.20;;
48018;SDS011;33786;48.690;9.562;2024-01-30T09:59:52;11.95;;;8.00;;
48018;SDS011;33786;48.690;9.562;2024-01-30T10:02:20;10.73;;;8.40;;
48018;SDS011;33786;48.690;9.562;2024-01-30T10:04:48;11.68;;;8.27;;
48018;SDS011;33786;48.690;9.562;2024-01-30T10:07:19;11.68;;;8.52;;
48018;SDS011;33786;48.690;9.562;2024-01-30T10:09:47;11.85;;;8.30;;
48018;SDS011;33786;48.690;9.562;2024-01-30T10:12:15;13.57;;;9.00;;
48018;SDS011;33786;48.690;9.562;2024-01-30T10:14:42;12.57;;;8.15;;
48018;SDS011;33786;48.690;9.562;2024-01-30T10:17:10;11.77;;;8.75;;
48018;SDS011;33786;48.690;9.562;2024-01-30T10:19:49;13.13;;;9.35;;
48018;SDS011;33786;48.690;9.562;2024-01-30T10:22:18;12.95;;;8.93;;
48018;SDS011;33786;48.690;9.562;2024-01-30T10:24:45;12.68;;;8.48;;
48018;SDS011;33786;48.690;9.562;2024-01-30T10:27:12;14.98;;;9.63;;
48018;SDS011;33786;48.690;9.562;2024-01-30T10:29:39;13.98;;;8.95;;
48018;SDS011;33786;48.690;9.562;2024-01-30T10:32:06;12.52;;;8.60;;
48018;SDS011;33786;48.690;9.562;2024-01-30T10:34:33;13.57;;;8.65;;
48018;SDS011;33786;48.690;9.562;2024-01-30T10:39:43;16.60;;;9.82;;
48018;SDS011;33786;48.690;9.562;2024-01-30T10:42:15;13.68;;;8.65;;
48018;SDS011;33786;48.690;9.562;2024-01-30T10:45:00;11.38;;;8.38;;
48018;SDS011;33786;48.690;9.562;2024-01-30T10:47:35;16.60;;;9.80;;
48018;SDS011;33786;48.690;9.562;2024-01-30T10:50:03;19.15;;;15.45;;
48018;SDS011;33786;48.690;9.562;2024-01-30T10:52:30;13.43;;;11.98;;
48018;SDS011;33786;48.690;9.562;2024-01-30T10:54:58;20.98;;;12.30;;
48018;SDS011;33786;48.690;9.562;2024-01-30T10:57:26;16.15;;;11.43;;
48018;SDS011;33786;48.690;9.562;2024-01-30T10:59:55;21.67;;;14.10;;
48018;SDS011;33786;48.690;9.562;2024-01-30T11:02:23;20.33;;;14.48;;
48018;SDS011;33786;48.690;9.562;2024-01-30T11:04:55;14.55;;;11.18;;
48018;SDS011;33786;48.690;9.562;2024-01-30T11:07:27;15.10;;;11.65;;
48018;SDS011;33786;48.690;9.562;2024-01-30T11:12:38;14.65;;;9.85;;
48018;SDS011;33786;48.690;9.562;2024-01-30T11:15:12;15.13;;;10.27;;
48018;SDS011;33786;48.690;9.562;2024-01-30T11:17:50;11.20;;;8.38;;
48018;SDS011;33786;48.690;9.562;2024-01-30T11:20:22;12.07;;;8.50;;
48018;SDS011;33786;48.690;9.562;2024-01-30T11:22:54;14.95;;;9.63;;
48018;SDS011;33786;48.690;9.562;2024-01-30T11:25:23;14.00;;;8.48;;
48018;SDS011;33786;48.690;9.562;2024-01-30T11:27:51;11.07;;;8.35;;
48018;SDS011;33786;48.690;9.562;2024-01-30T11:30:26;13.98;;;8.25;;
48018;SDS011;33786;48.690;9.562;2024-01-30T11:33:00;11.82;;;8.38;;
48018;SDS011;33786;48.690;9.562;2024-01-30T11:35:35;14.00;;;8.98;;
48018;SDS011;33786;48.690;9.562;2024-01-30T11:38:03;12.25;;;8.20;;
48018;SDS011;33786;48.690;9.562;2024-01-30T11:40:31;11.25;;;8.15;;
48018;SDS011;33786;48.690;9.562;2024-01-30T11:43:00;15.07;;;9.32;;
48018;SDS011;33786;48.690;9.562;2024-01-30T11:45:27;10.60;;;8.23;;
48018;SDS011;33786;48.690;9.562;2024-01-30T11:47:55;11.45;;;8.02;;
48018;SDS011;33786;48.690;9.562;2024-01-30T11:50:22;14.02;;;7.97;;
48018;SDS011;33786;48.690;9.562;2024-01-30T11:52:49;11.95;;;7.28;;
48018;SDS011;33786;48.690;9.562;2024-01-30T11:55:16;11.63;;;6.47;;
48018;SDS011;33786;48.690;9.562;2024-01-30T11:57:45;12.05;;;6.80;;
48018;SDS011;33786;48.690;9.562;2024-01-30T12:00:16;9.15;;;6.70;;
48018;SDS011;33786;48.690;9.562;2024-01-30T12:02:48;11.07;;;6.68;;
48018;SDS011;33786;48.690;9.562;2024-01-30T12:05:22;12.00;;;6.50;;
48018;SDS011;33786;48.690;9.562;2024-01-30T12:07:50;20.23;;;7.32;;
48018;SDS011;33786;48.690;9.562;2024-01-30T12:10:17;14.30;;;9.32;;
48018;SDS011;33786;48.690;9.562;2024-01-30T12:12:45;11.55;;;9.45;;
48018;SDS011;33786;48.690;9.562;2024-01-30T12:15:15;10.77;;;8.27;;
48018;SDS011;33786;48.690;9.562;2024-01-30T12:17:42;13.65;;;7.80;;
48018;SDS011;33786;48.690;9.562;2024-01-30T12:25:11;12.55;;;7.60;;
48018;SDS011;33786;48.690;9.562;2024-01-30T12:27:45;11.27;;;7.10;;
48018;SDS011;33786;48.690;9.562;2024-01-30T12:30:17;14.52;;;9.88;;
48018;SDS011;33786;48.690;9.562;2024-01-30T12:32:45;12.02;;;7.82;;
48018;SDS011;33786;48.690;9.562;2024-01-30T12:35:17;12.70;;;7.45;;
48018;SDS011;33786;48.690;9.562;2024-01-30T12:37:46;17.58;;;9.00;;
48018;SDS011;33786;48.690;9.562;2024-01-30T12:40:14;13.30;;;8.35;;
48018;SDS011;33786;48.690;9.562;2024-01-30T12:42:43;11.43;;;7.85;;
48018;SDS011;33786;48.690;9.562;2024-01-30T12:45:13;10.35;;;7.25;;
48018;SDS011;33786;48.690;9.562;2024-01-30T12:47:41;10.68;;;7.38;;
48018;SDS011;33786;48.690;9.562;2024-01-30T12:50:08;14.98;;;7.53;;
48018;SDS011;33786;48.690;9.562;2024-01-30T12:52:36;9.45;;;6.53;;
48018;SDS011;33786;48.690;9.562;2024-01-30T12:55:03;10.23;;;6.78;;
48018;SDS011;33786;48.690;9.562;2024-01-30T12:57:31;13.73;;;8.85;;
48018;SDS011;33786;48.690;9.562;2024-01-30T12:59:57;19.77;;;12.88;;
48018;SDS011;33786;48.690;9.562;2024-01-30T13:02:24;15.10;;;9.32;;
48018;SDS011;33786;48.690;9.562;2024-01-30T13:04:52;14.18;;;8.18;;
48018;SDS011;33786;48.690;9.562;2024-01-30T13:07:20;13.32;;;8.95;;
48018;SDS011;33786;48.690;9.562;2024-01-30T13:09:47;16.17;;;9.25;;
48018;SDS011;33786;48.690;9.562;2024-01-30T13:12:14;14.65;;;9.13;;
48018;SDS011;33786;48.690;9.562;2024-01-30T13:14:41;13.30;;;8.65;;
48018;SDS011;33786;48.690;9.562;2024-01-30T13:17:07;16.63;;;8.88;;
48018;SDS011;33786;48.690;9.562;2024-01-30T13:19:34;12.20;;;8.68;;
48018;SDS011;33786;48.690;9.562;2024-01-30T13:22:02;10.70;;;7.97;;
48018;SDS011;33786;48.690;9.562;2024-01-30T13:24:29;14.15;;;8.63;;
48018;SDS011;33786;48.690;9.562;2024-01-30T13:26:56;12.18;;;8.43;;
48018;SDS011;33786;48.690;9.562;2024-01-30T13:29:24;13.30;;;8.05;;
48018;SDS011;33786;48.690;9.562;2024-01-30T13:31:51;10.98;;;7.18;;
48018;SDS011;33786;48.690;9.562;2024-01-30T13:34:18;11.82;;;7.55;;
48018;SDS011;33786;48.690;9.562;2024-01-30T13:36:45;12.55;;;7.50;;
48018;SDS011;33786;48.690;9.562;2024-01-30T13:39:12;11.20;;;7.10;;
48018;SDS011;33786;48.690;9.562;2024-01-30T13:41:39;14.32;;;8.50;;
48018;SDS011;33786;48.690;9.562;2024-01-30T13:44:05;10.98;;;7.43;;
48018;SDS011;33786;48.690;9.562;2024-01-30T13:46:33;10.88;;;7.28;;
48018;SDS011;33786;48.690;9.562;2024-01-30T13:48:59;11.80;;;7.55;;
48018;SDS011;33786;48.690;9.562;2024-01-30T13:51:27;11.05;;;7.70;;
48018;SDS011;33786;48.690;9.562;2024-01-30T13:53:54;10.82;;;6.97;;
48018;SDS011;33786;48.690;9.562;2024-01-30T13:56:20;13.75;;;7.63;;
48018;SDS011;33786;48.690;9.562;2024-01-30T13:58:48;11.75;;;7.35;;
48018;SDS011;33786;48.690;9.562;2024-01-30T14:01:16;14.00;;;7.45;;
48018;SDS011;33786;48.690;9.562;2024-01-30T14:03:43;11.10;;;7.30;;
48018;SDS011;33786;48.690;9.562;2024-01-30T14:06:11;13.80;;;7.55;;
48018;SDS011;33786;48.690;9.562;2024-01-30T14:08:38;10.27;;;6.47;;
48018;SDS011;33786;48.690;9.562;2024-01-30T14:11:08;13.23;;;8.27;;
48018;SDS011;33786;48.690;9.562;2024-01-30T14:13:36;12.00;;;7.93;;
48018;SDS011;33786;48.690;9.562;2024-01-30T14:16:02;12.05;;;7.60;;
48018;SDS011;33786;48.690;9.562;2024-01-30T14:18:32;11.63;;;7.32;;
48018;SDS011;33786;48.690;9.562;2024-01-30T14:20:59;11.85;;;7.18;;
48018;SDS011;33786;48.690;9.562;2024-01-30T14:23:26;10.45;;;7.47;;
48018;SDS011;33786;48.690;9.562;2024-01-30T14:25:52;16.90;;;7.80;;
48018;SDS011;33786;48.690;9.562;2024-01-30T14:28:19;10.52;;;7.15;;
48018;SDS011;33786;48.690;9.562;2024-01-30T14:30:46;15.25;;;8.65;;
48018;SDS011;33786;48.690;9.562;2024-01-30T14:33:13;17.30;;;8.45;;
48018;SDS011;33786;48.690;9.562;2024-01-30T14:35:40;19.90;;;9.23;;
48018;SDS011;33786;48.690;9.562;2024-01-30T14:38:07;19.15;;;10.93;;
48018;SDS011;33786;48.690;9.562;2024-01-30T14:40:34;26.17;;;11.48;;
48018;SDS011;33786;48.690;9.562;2024-01-30T14:43:01;17.67;;;10.57;;